Time;durP1;ratioP1;P1;durP2;ratioP2;P2;SDS_P1;SDS_P2;PMS_P1;PMS_P2;Temp;Humidity;BMP_temperature;BMP_pressure;BME280_temperature;BME280_humidity;BME280_pressure;Samples;Min_cycle;Max_cycle;Signal;HPM_P1;HPM_P2
2022/10/07 00:00:23;;;;;;;13.88;10.05;;;20.10;61.80;;;;;;5095296;28;20024;-91
2022/10/07 00:02:49;;;;;;;14.13;9.77;;;20.00;61.60;;;;;;5096497;28;20439;-84
2022/10/07 00:05:14;;;;;;;13.60;10.18;;;20.00;61.00;;;;;;5095075;28;20012;-85
2022/10/07 00:07:40;;;;;;;15.48;10.02;;;20.10;60.70;;;;;;5078337;28;20029;-87
2022/10/07 00:10:06;;;;;;;14.40;10.07;;;20.20;60.40;;;;;;5095147;28;20387;-85
2022/10/07 00:12:32;;;;;;;13.73;9.52;;;20.10;60.40;;;;;;5095544;28;20040;-86
2022/10/07 00:14:58;;;;;;;13.48;9.30;;;20.10;60.80;;;;;;5096431;28;20023;-86
2022/10/07 00:17:23;;;;;;;17.65;10.30;;;19.90;61.30;;;;;;5096556;28;20050;-86
2022/10/07 00:19:49;;;;;;;18.77;11.38;;;19.70;62.30;;;;;;5095994;28;20024;-85
2022/10/07 00:22:15;;;;;;;17.65;11.82;;;19.60;63.30;;;;;;5095300;28;20056;-86
2022/10/07 00:24:40;;;;;;;13.02;9.88;;;19.80;63.10;;;;;;5057543;28;20028;-86
2022/10/07 00:27:06;;;;;;;16.00;11.43;;;19.80;63.90;;;;;;5057741;28;20021;-93
2022/10/07 00:29:32;;;;;;;14.75;10.77;;;19.80;64.00;;;;;;5061895;28;20028;-83
2022/10/07 00:31:57;;;;;;;14.57;10.38;;;19.90;62.90;;;;;;5058521;28;20047;-94
2022/10/07 00:34:23;;;;;;;12.02;9.38;;;20.10;61.80;;;;;;5059102;28;20032;-85
2022/10/07 00:36:49;;;;;;;13.30;10.20;;;20.10;62.50;;;;;;5095025;28;20028;-86
2022/10/07 00:39:17;;;;;;;14.55;10.27;;;19.90;64.90;;;;;;5076180;28;20050;-95
2022/10/07 00:41:52;;;;;;;14.63;9.23;;;20.00;63.00;;;;;;5075209;28;20039;-85
2022/10/07 00:44:30;;;;;;;13.00;9.30;;;20.00;63.10;;;;;;5075818;28;20425;-94
2022/10/07 00:46:58;;;;;;;15.95;10.73;;;19.80;63.80;;;;;;5060525;28;20024;-85
2022/10/07 00:49:26;;;;;;;14.00;9.63;;;19.80;63.70;;;;;;5058903;28;20020;-86
2022/10/07 00:51:52;;;;;;;16.40;11.40;;;19.90;62.80;;;;;;5077361;28;20035;-96
2022/10/07 00:54:26;;;;;;;13.68;9.73;;;20.10;62.30;;;;;;5094988;28;20028;-92
2022/10/07 00:56:52;;;;;;;13.43;8.98;;;20.20;61.50;;;;;;5075851;28;20454;-87
2022/10/07 00:59:19;;;;;;;11.70;8.52;;;20.40;60.90;;;;;;5076289;28;20516;-94
2022/10/07 01:01:45;;;;;;;13.02;9.25;;;20.40;61.00;;;;;;5078734;28;20032;-88
2022/10/07 01:04:13;;;;;;;12.70;9.75;;;20.30;61.80;;;;;;5072553;28;20028;-93
2022/10/07 01:06:40;;;;;;;14.35;9.90;;;20.00;63.70;;;;;;5091293;28;20387;-95
2022/10/07 01:09:09;;;;;;;15.35;10.38;;;19.70;64.40;;;;;;5077336;28;20028;-85
2022/10/07 01:11:59;;;;;;;15.05;10.27;;;19.60;65.10;;;;;;5076833;28;20074;-87
2022/10/07 01:14:55;;;;;;;16.02;11.82;;;19.90;63.90;;;;;;5092464;28;20036;-86
2022/10/07 01:17:38;;;;;;;12.95;10.10;;;20.00;64.30;;;;;;5076724;28;20016;-90
2022/10/07 01:20:29;;;;;;;13.90;9.43;;;20.10;62.40;;;;;;5081045;28;20036;-86
2022/10/07 01:23:00;;;;;;;14.88;10.50;;;20.00;60.80;;;;;;5070874;28;20489;-91
2022/10/07 01:25:53;;;;;;;13.70;8.82;;;20.10;60.90;;;;;;5090815;28;20039;-86
2022/10/07 01:28:36;;;;;;;12.45;9.40;;;20.10;61.10;;;;;;5075966;28;20545;-89
2022/10/07 01:31:05;;;;;;;14.52;10.07;;;19.40;62.90;;;;;;5090413;28;20051;-86
2022/10/07 01:33:32;;;;;;;17.17;9.77;;;19.50;62.30;;;;;;5076747;28;20098;-87
2022/10/07 01:36:06;;;;;;;14.57;9.60;;;19.70;62.30;;;;;;5075568;28;20031;-91
2022/10/07 01:38:33;;;;;;;13.85;10.13;;;19.70;61.00;;;;;;5088319;28;20027;-85
2022/10/07 01:41:10;;;;;;;14.32;10.25;;;19.80;60.90;;;;;;5106622;28;20028;-90
2022/10/07 01:43:38;;;;;;;16.42;11.32;;;19.90;60.50;;;;;;5081068;28;20032;-90
2022/10/07 01:46:08;;;;;;;12.38;9.15;;;19.90;60.50;;;;;;5069701;28;20032;-89
2022/10/07 01:48:34;;;;;;;13.10;9.55;;;19.90;61.20;;;;;;5060291;28;20024;-87
2022/10/07 01:51:01;;;;;;;14.93;9.70;;;19.20;62.50;;;;;;5076027;28;20394;-87
2022/10/07 01:53:35;;;;;;;13.68;9.73;;;18.70;64.40;;;;;;5075840;28;20063;-87
2022/10/07 01:56:29;;;;;;;14.80;10.50;;;18.40;65.90;;;;;;5076083;28;20496;-90
2022/10/07 01:59:23;;;;;;;14.23;10.05;;;18.70;65.30;;;;;;5090864;28;20363;-86
2022/10/07 02:02:13;;;;;;;14.18;8.88;;;19.10;63.50;;;;;;5074106;28;20044;-86
2022/10/07 02:04:58;;;;;;;15.73;10.02;;;19.50;62.40;;;;;;5073817;28;20024;-89
2022/10/07 02:08:01;;;;;;;12.20;8.93;;;19.60;61.90;;;;;;5074152;28;20162;-87
2022/10/07 02:10:38;;;;;;;14.85;10.32;;;19.70;61.40;;;;;;5073675;28;20382;-87
2022/10/07 02:13:32;;;;;;;16.70;11.43;;;19.60;63.10;;;;;;5094202;28;20076;-86
2022/10/07 02:16:09;;;;;;;14.75;10.88;;;19.40;64.20;;;;;;5080535;28;20032;-87
2022/10/07 02:18:38;;;;;;;13.35;10.18;;;19.50;64.00;;;;;;5085003;28;20063;-88
2022/10/07 02:21:09;;;;;;;16.15;10.82;;;19.60;63.80;;;;;;5072811;28;20063;-86
2022/10/07 02:23:39;;;;;;;14.98;9.93;;;19.80;63.10;;;;;;5073497;28;20024;-87
2022/10/07 02:26:08;;;;;;;20.15;11.70;;;19.90;61.90;;;;;;5072449;28;20052;-86
2022/10/07 02:28:39;;;;;;;15.02;9.93;;;19.80;62.00;;;;;;5078091;28;20032;-86
2022/10/07 02:31:09;;;;;;;13.60;9.27;;;19.80;62.10;;;;;;5080407;28;20133;-87
2022/10/07 02:33:37;;;;;;;17.08;11.48;;;19.70;62.10;;;;;;5097823;28;20036;-87
2022/10/07 02:36:09;;;;;;;12.75;9.65;;;19.20;64.30;;;;;;5097838;28;20475;-85
2022/10/07 02:38:38;;;;;;;13.52;9.43;;;19.30;63.90;;;;;;5095025;28;20017;-87
2022/10/07 02:41:06;;;;;;;14.98;10.45;;;19.10;65.00;;;;;;5060132;28;20031;-86
2022/10/07 02:43:55;;;;;;;21.20;13.15;;;18.70;66.60;;;;;;5093251;28;20043;-85
2022/10/07 02:46:28;;;;;;;15.55;10.95;;;18.80;66.80;;;;;;5077276;28;20020;-86
2022/10/07 02:49:01;;;;;;;15.95;11.40;;;19.10;66.00;;;;;;5096456;28;20030;-87
2022/10/07 02:51:32;;;;;;;15.52;10.85;;;19.30;64.30;;;;;;5079703;28;20081;-86
2022/10/07 02:54:01;;;;;;;15.75;9.98;;;19.50;63.10;;;;;;5082905;28;20501;-87
2022/10/07 02:56:30;;;;;;;17.13;10.73;;;19.60;62.80;;;;;;5098251;28;20036;-87
2022/10/07 02:58:59;;;;;;;13.98;10.40;;;19.50;64.40;;;;;;5062445;28;20086;-86
2022/10/07 03:01:31;;;;;;;18.13;12.05;;;19.40;64.20;;;;;;5079191;28;20016;-86
2022/10/07 03:03:57;;;;;;;17.85;12.18;;;19.20;65.00;;;;;;5083626;28;20028;-83
2022/10/07 03:06:24;;;;;;;15.38;11.15;;;19.20;65.80;;;;;;5077291;28;20166;-86
2022/10/07 03:08:51;;;;;;;15.88;11.77;;;19.50;64.60;;;;;;5072569;28;20036;-85
2022/10/07 03:11:17;;;;;;;21.05;13.15;;;19.20;65.70;;;;;;5084638;28;20432;-85
2022/10/07 03:13:44;;;;;;;21.00;13.48;;;19.10;66.80;;;;;;5085641;28;20083;-85
2022/10/07 03:16:09;;;;;;;17.52;11.70;;;19.10;66.50;;;;;;5074816;28;20123;-85
2022/10/07 03:18:35;;;;;;;16.48;12.18;;;19.30;64.90;;;;;;5096226;28;20115;-85
2022/10/07 03:21:01;;;;;;;17.40;11.15;;;19.30;65.10;;;;;;5078263;28;20482;-85
2022/10/07 03:23:30;;;;;;;13.75;10.90;;;19.50;63.40;;;;;;5076620;28;21867;-85
2022/10/07 03:25:57;;;;;;;19.85;11.80;;;19.70;62.40;;;;;;5072192;28;20034;-85
2022/10/07 03:28:24;;;;;;;19.48;12.63;;;19.70;61.80;;;;;;5077329;28;20085;-85
2022/10/07 03:30:50;;;;;;;16.70;12.13;;;19.80;61.20;;;;;;5077232;28;20048;-86
2022/10/07 03:33:17;;;;;;;15.10;11.07;;;19.80;61.60;;;;;;5088109;28;20043;-84
2022/10/07 03:35:43;;;;;;;16.88;11.38;;;19.70;62.50;;;;;;5096438;28;20020;-84
2022/10/07 03:38:10;;;;;;;18.10;12.10;;;19.40;63.00;;;;;;5077650;28;20028;-85
2022/10/07 03:40:37;;;;;;;16.48;11.68;;;19.50;62.60;;;;;;5078354;28;20031;-84
2022/10/07 03:43:04;;;;;;;13.93;10.05;;;19.70;61.50;;;;;;5094740;28;20040;-84
2022/10/07 03:45:30;;;;;;;18.58;12.10;;;19.60;61.00;;;;;;5077828;28;20032;-82
2022/10/07 03:47:56;;;;;;;17.42;11.65;;;19.40;62.00;;;;;;5079675;28;20033;-85
2022/10/07 03:50:23;;;;;;;13.95;10.63;;;19.50;61.30;;;;;;5085910;28;20024;-84
2022/10/07 03:52:49;;;;;;;17.15;11.73;;;19.30;62.80;;;;;;5081572;28;20032;-85
2022/10/07 03:55:15;;;;;;;19.00;12.48;;;19.10;62.50;;;;;;5073918;28;20386;-84
2022/10/07 03:57:51;;;;;;;18.40;11.55;;;19.30;62.00;;;;;;5086554;28;20028;-84
2022/10/07 04:00:19;;;;;;;18.85;14.73;;;19.40;61.40;;;;;;5075470;28;20483;-85
2022/10/07 04:02:46;;;;;;;18.42;12.40;;;19.60;60.90;;;;;;5094410;28;20035;-82
2022/10/07 04:05:16;;;;;;;19.38;12.27;;;19.60;60.90;;;;;;5072686;28;20027;-82
2022/10/07 04:07:46;;;;;;;17.10;11.95;;;19.60;60.90;;;;;;5058249;28;20024;-84
2022/10/07 04:10:14;;;;;;;18.52;12.98;;;19.60;60.90;;;;;;5057939;28;20021;-83
2022/10/07 04:12:40;;;;;;;17.77;11.15;;;19.50;60.50;;;;;;5072244;28;20486;-82
2022/10/07 04:15:07;;;;;;;17.73;12.20;;;19.40;60.70;;;;;;5089682;28;20027;-83
2022/10/07 04:17:33;;;;;;;16.10;11.55;;;19.30;60.60;;;;;;5075410;28;20036;-83
2022/10/07 04:19:59;;;;;;;17.67;12.43;;;19.20;61.70;;;;;;5076449;28;20021;-83
2022/10/07 04:22:25;;;;;;;15.68;10.85;;;18.60;64.10;;;;;;5074879;28;20032;-84
2022/10/07 04:27:35;;;;;;;16.48;11.13;;;18.30;65.00;;;;;;5089595;28;20039;-82
2022/10/07 04:30:02;;;;;;;15.52;11.00;;;18.20;64.40;;;;;;5090034;28;20020;-83
2022/10/07 04:32:29;;;;;;;27.70;17.95;;;18.20;64.10;;;;;;5077522;28;20471;-83
2022/10/07 04:34:55;;;;;;;16.55;11.93;;;18.30;65.60;;;;;;5095760;28;20023;-83
2022/10/07 04:37:21;;;;;;;19.25;13.05;;;18.30;64.10;;;;;;5092791;28;20028;-84
2022/10/07 04:39:46;;;;;;;20.90;12.85;;;18.10;65.70;;;;;;5076000;28;20085;-83
2022/10/07 04:43:17;;;;;;;17.23;11.60;;;18.10;65.20;;;;;;5094679;28;20024;-82
2022/10/07 04:44:58;;;;;;;20.08;13.07;;;18.20;63.80;;;;;;5094491;28;20028;-82
2022/10/07 04:47:23;;;;;;;15.07;11.63;;;17.80;66.20;;;;;;5075835;28;20024;-81
2022/10/07 04:49:51;;;;;;;20.23;13.57;;;18.00;64.70;;;;;;5094556;28;20089;-83
2022/10/07 04:52:16;;;;;;;20.88;13.57;;;18.20;65.60;;;;;;5075772;28;20117;-81
2022/10/07 04:54:42;;;;;;;17.20;12.68;;;18.60;63.90;;;;;;5097081;28;20052;-80
2022/10/07 04:57:08;;;;;;;21.50;14.88;;;18.80;62.50;;;;;;5093245;28;20028;-81
2022/10/07 04:59:35;;;;;;;19.58;13.07;;;19.10;62.30;;;;;;5092762;28;20119;-81
2022/10/07 05:02:01;;;;;;;21.48;13.27;;;19.10;62.80;;;;;;5076355;28;20463;-81
2022/10/07 05:04:27;;;;;;;16.33;11.85;;;19.10;61.60;;;;;;5076008;28;20035;-82
2022/10/07 05:06:52;;;;;;;17.48;12.77;;;19.10;61.40;;;;;;5093840;28;20020;-82
2022/10/07 05:09:18;;;;;;;16.58;11.88;;;19.10;60.90;;;;;;5074684;28;20024;-81
2022/10/07 05:11:44;;;;;;;16.70;11.57;;;18.60;62.80;;;;;;5075147;28;20020;-80
2022/10/07 05:14:10;;;;;;;17.88;12.73;;;18.20;64.10;;;;;;5107362;28;20034;-81
2022/10/07 05:16:35;;;;;;;18.33;13.05;;;18.20;66.70;;;;;;5075035;28;20475;-81
2022/10/07 05:19:01;;;;;;;18.88;13.30;;;18.40;64.20;;;;;;5094377;28;20028;-81
2022/10/07 05:21:27;;;;;;;19.60;13.95;;;18.60;64.50;;;;;;5083622;28;20031;-81
2022/10/07 05:23:52;;;;;;;20.75;14.45;;;18.80;63.80;;;;;;5093100;28;20028;-81
2022/10/07 05:26:18;;;;;;;27.58;17.10;;;19.00;62.80;;;;;;5098887;28;20020;-80
2022/10/07 05:28:47;;;;;;;25.27;15.52;;;19.30;62.90;;;;;;5092283;28;20028;-81
2022/10/07 05:31:14;;;;;;;18.02;12.60;;;19.40;62.30;;;;;;5091076;28;20135;-80
2022/10/07 05:33:40;;;;;;;24.15;16.60;;;19.40;61.40;;;;;;5090964;28;20135;-79
2022/10/07 05:36:08;;;;;;;20.27;13.70;;;19.10;65.20;;;;;;5092806;28;20352;-83
2022/10/07 05:38:34;;;;;;;22.10;14.55;;;19.00;64.00;;;;;;5075142;28;20028;-81
2022/10/07 05:41:02;;;;;;;18.65;12.93;;;19.20;63.20;;;;;;5092941;28;20054;-80
2022/10/07 05:43:29;;;;;;;20.38;14.73;;;19.40;62.80;;;;;;5075409;28;20166;-80
2022/10/07 05:46:05;;;;;;;25.67;16.25;;;19.50;63.30;;;;;;5075895;28;20088;-83
2022/10/07 05:48:31;;;;;;;18.23;12.95;;;19.30;64.90;;;;;;5075647;28;20032;-83
2022/10/07 05:50:58;;;;;;;24.20;14.98;;;19.40;63.60;;;;;;5075394;28;20020;-82
2022/10/07 05:53:25;;;;;;;18.48;12.90;;;19.10;66.00;;;;;;5074805;28;20043;-83
2022/10/07 05:55:55;;;;;;;21.48;13.77;;;19.20;64.40;;;;;;5075683;28;20428;-83
2022/10/07 05:58:21;;;;;;;24.77;15.13;;;19.40;65.10;;;;;;5085779;28;20062;-81
2022/10/07 06:00:56;;;;;;;19.50;14.98;;;19.30;65.20;;;;;;5087971;28;20025;-82
2022/10/07 06:03:24;;;;;;;22.90;14.95;;;19.30;66.90;;;;;;5073495;28;20024;-83
2022/10/07 06:05:51;;;;;;;18.20;13.30;;;19.60;65.40;;;;;;5091916;28;20020;-83
2022/10/07 06:08:18;;;;;;;19.23;13.63;;;19.80;64.70;;;;;;5074865;28;20028;-83
2022/10/07 06:13:30;;;;;;;21.58;14.57;;;19.50;67.70;;;;;;5093165;28;20046;-82
2022/10/07 06:16:04;;;;;;;20.02;14.90;;;19.70;67.40;;;;;;5074984;28;20400;-83
2022/10/07 06:18:30;;;;;;;18.20;13.27;;;20.10;66.40;;;;;;5075191;28;20123;-83
2022/10/07 06:20:57;;;;;;;18.08;13.27;;;20.60;65.10;;;;;;5093124;28;20020;-83
2022/10/07 06:23:23;;;;;;;19.65;14.27;;;20.90;64.10;;;;;;5075230;28;20036;-84
2022/10/07 06:26:04;;;;;;;20.75;14.25;;;21.20;63.80;;;;;;5074983;28;20021;-83
2022/10/07 06:28:34;;;;;;;20.35;13.55;;;21.20;63.80;;;;;;5092854;28;20111;-82
2022/10/07 06:31:04;;;;;;;18.15;12.52;;;21.10;64.60;;;;;;5064856;28;20044;-82
2022/10/07 06:33:30;;;;;;;20.17;13.80;;;21.30;64.10;;;;;;5073044;28;20036;-84
2022/10/07 06:35:55;;;;;;;20.90;13.55;;;21.50;63.50;;;;;;5055245;28;20024;-83
2022/10/07 06:38:22;;;;;;;18.42;12.75;;;21.70;63.40;;;;;;5072629;28;20373;-84
2022/10/07 06:40:58;;;;;;;17.23;12.30;;;21.90;63.00;;;;;;5088917;28;20029;-82
2022/10/07 06:43:28;;;;;;;20.83;14.05;;;22.00;62.60;;;;;;5074143;28;20498;-83
2022/10/07 06:46:03;;;;;;;16.60;12.48;;;22.10;62.50;;;;;;5089033;28;20029;-85
2022/10/07 06:48:30;;;;;;;19.55;11.73;;;22.10;62.30;;;;;;5071242;28;20028;-85
2022/10/07 06:50:57;;;;;;;17.42;12.68;;;21.90;62.60;;;;;;4720542;28;10000277;-85
2022/10/07 06:53:24;;;;;;;17.60;11.35;;;22.10;62.50;;;;;;5070474;28;20423;-85
2022/10/07 06:55:50;;;;;;;13.98;11.07;;;22.30;62.50;;;;;;5071859;28;20029;-85
2022/10/07 06:58:17;;;;;;;15.60;11.77;;;22.40;62.20;;;;;;5071483;28;20119;-86
2022/10/07 07:00:47;;;;;;;14.02;10.57;;;22.50;62.40;;;;;;5071127;28;20063;-87
2022/10/07 07:03:13;;;;;;;15.38;10.32;;;22.30;62.10;;;;;;5071420;28;20024;-88
2022/10/07 07:05:39;;;;;;;16.05;11.15;;;22.00;63.40;;;;;;5072957;28;20031;-83
2022/10/07 07:08:05;;;;;;;14.98;10.13;;;21.90;63.00;;;;;;5072892;28;20024;-87
2022/10/07 07:10:35;;;;;;;16.55;10.45;;;21.40;64.40;;;;;;5055013;28;20028;-87
2022/10/07 07:13:01;;;;;;;13.68;9.75;;;20.90;65.30;;;;;;5072093;28;20087;-85
2022/10/07 07:15:26;;;;;;;13.50;9.75;;;20.50;66.80;;;;;;5074849;28;20029;-85
2022/10/07 07:17:52;;;;;;;12.82;9.73;;;20.40;66.90;;;;;;5075496;28;20035;-89
2022/10/07 07:20:18;;;;;;;13.30;9.50;;;20.70;66.60;;;;;;5075187;28;20046;-87
2022/10/07 07:22:43;;;;;;;12.05;9.45;;;21.20;66.10;;;;;;5074962;28;20058;-89
2022/10/07 07:25:10;;;;;;;15.73;9.10;;;21.90;64.70;;;;;;5075075;28;20032;-89
2022/10/07 07:27:36;;;;;;;15.32;10.52;;;22.40;62.40;;;;;;5074962;28;20020;-88
2022/10/07 07:30:04;;;;;;;13.85;9.82;;;22.20;63.50;;;;;;5076652;28;20024;-92
2022/10/07 07:32:30;;;;;;;12.65;9.00;;;22.50;63.20;;;;;;5075247;28;20032;-85
2022/10/07 07:34:56;;;;;;;12.18;9.65;;;22.90;62.50;;;;;;5057916;28;20035;-89
2022/10/07 07:37:23;;;;;;;11.65;9.57;;;23.20;61.40;;;;;;5074835;28;20016;-88
2022/10/07 07:39:49;;;;;;;11.18;8.35;;;23.20;60.90;;;;;;5074564;28;20029;-88
2022/10/07 07:42:15;;;;;;;14.18;8.63;;;22.90;61.80;;;;;;5075910;28;20025;-85
2022/10/07 07:44:40;;;;;;;11.60;8.77;;;23.30;61.20;;;;;;5057540;28;20082;-87
2022/10/07 07:47:07;;;;;;;10.90;8.45;;;23.60;60.30;;;;;;5074548;28;20071;-83
2022/10/07 07:49:34;;;;;;;12.50;7.50;;;23.90;59.80;;;;;;5073540;28;20027;-84
2022/10/07 07:52:00;;;;;;;10.43;7.90;;;23.10;60.90;;;;;;5074209;28;20032;-84
2022/10/07 07:54:26;;;;;;;11.10;8.60;;;22.80;62.30;;;;;;5073890;28;20041;-83
2022/10/07 07:56:56;;;;;;;13.23;8.10;;;23.00;62.20;;;;;;5073734;28;20024;-85
2022/10/07 07:59:24;;;;;;;9.35;7.30;;;23.50;60.60;;;;;;5075941;28;20100;-85
2022/10/07 08:01:49;;;;;;;10.05;7.97;;;23.10;61.80;;;;;;5110280;28;20036;-84
2022/10/07 08:04:15;;;;;;;10.40;7.60;;;23.40;61.40;;;;;;5094145;28;20027;-85
2022/10/07 08:06:42;;;;;;;10.07;7.22;;;23.70;59.70;;;;;;5094390;28;20040;-91
2022/10/07 08:09:08;;;;;;;12.52;7.32;;;23.30;60.70;;;;;;5077096;28;20031;-82
2022/10/07 08:11:34;;;;;;;9.57;6.90;;;23.30;61.30;;;;;;5094893;28;20417;-87
2022/10/07 08:14:02;;;;;;;10.52;7.30;;;23.40;60.40;;;;;;5093590;28;20051;-86
2022/10/07 08:16:28;;;;;;;15.05;7.25;;;23.50;60.40;;;;;;5094002;28;20382;-84
2022/10/07 08:18:56;;;;;;;9.82;7.78;;;23.70;60.60;;;;;;5093312;28;20085;-84
2022/10/07 08:21:26;;;;;;;10.27;7.82;;;24.20;60.10;;;;;;5076398;28;20031;-82
2022/10/07 08:23:53;;;;;;;10.40;7.38;;;24.70;59.00;;;;;;5076180;28;20031;-81
2022/10/07 08:26:19;;;;;;;9.18;7.05;;;25.10;58.00;;;;;;5074826;28;20475;-84
2022/10/07 08:28:47;;;;;;;9.50;6.88;;;25.50;57.40;;;;;;5093969;28;20034;-83
2022/10/07 08:31:16;;;;;;;8.82;7.15;;;25.60;57.80;;;;;;5094389;28;20566;-83
2022/10/07 08:33:44;;;;;;;11.73;7.20;;;25.30;57.80;;;;;;5077153;28;20040;-84
2022/10/07 08:36:12;;;;;;;12.02;7.82;;;25.30;58.00;;;;;;5094450;28;20016;-83
2022/10/07 08:38:40;;;;;;;11.10;7.35;;;25.20;59.00;;;;;;5075470;28;20028;-83
2022/10/07 08:41:05;;;;;;;9.85;7.22;;;25.40;57.80;;;;;;5075130;28;20566;-81
2022/10/07 08:43:32;;;;;;;13.63;8.90;;;25.50;57.50;;;;;;5091358;28;20032;-82
2022/10/07 08:45:59;;;;;;;10.18;7.60;;;25.60;57.40;;;;;;5093015;28;20032;-81
2022/10/07 08:48:31;;;;;;;14.75;7.88;;;25.80;57.10;;;;;;5074462;28;20149;-85
2022/10/07 08:51:08;;;;;;;10.07;6.30;;;25.70;57.30;;;;;;5074962;28;20606;-82
2022/10/07 08:53:36;;;;;;;10.48;7.07;;;25.30;57.90;;;;;;5075531;28;20032;-83
2022/10/07 08:56:16;;;;;;;11.20;7.60;;;25.50;58.00;;;;;;5094653;28;20012;-82
2022/10/07 08:59:08;;;;;;;9.60;6.45;;;25.80;57.40;;;;;;5076119;28;20040;-83
2022/10/07 09:01:57;;;;;;;10.65;7.22;;;26.00;56.50;;;;;;5093045;28;20032;-85
2022/10/07 09:04:42;;;;;;;74.25;13.20;;;26.20;57.50;;;;;;5093893;28;20024;-84
2022/10/07 09:07:15;;;;;;;9.60;6.78;;;25.90;57.30;;;;;;5093201;28;20060;-83
2022/10/07 09:10:00;;;;;;;10.10;7.10;;;26.00;56.80;;;;;;5093131;28;20395;-86
2022/10/07 09:12:50;;;;;;;14.02;6.90;;;26.20;57.30;;;;;;5076361;28;20032;-84
2022/10/07 09:15:47;;;;;;;8.57;6.22;;;26.40;57.40;;;;;;5077001;28;20024;-90
2022/10/07 09:18:22;;;;;;;10.13;6.15;;;26.40;57.00;;;;;;5077064;28;20028;-85
2022/10/07 09:20:53;;;;;;;9.07;5.75;;;26.10;56.20;;;;;;5076554;28;20363;-87
2022/10/07 09:23:27;;;;;;;8.60;6.10;;;26.00;56.00;;;;;;5075977;28;20408;-83
2022/10/07 09:25:53;;;;;;;10.60;6.15;;;26.10;55.90;;;;;;5076417;28;20039;-84
2022/10/07 09:28:26;;;;;;;9.50;6.38;;;26.20;57.20;;;;;;5094271;28;20103;-89
2022/10/07 09:30:53;;;;;;;9.25;5.82;;;26.30;56.90;;;;;;5094978;28;20056;-87
2022/10/07 09:33:22;;;;;;;9.40;6.63;;;26.40;56.30;;;;;;5093109;28;20036;-87
2022/10/07 09:36:09;;;;;;;7.37;5.97;;;26.70;57.30;;;;;;5074809;28;20024;-84
2022/10/07 09:38:42;;;;;;;8.23;5.90;;;27.00;56.00;;;;;;5093330;28;20074;-85
2022/10/07 09:41:29;;;;;;;7.38;5.47;;;27.20;56.00;;;;;;5093150;28;20031;-83
2022/10/07 09:44:00;;;;;;;8.45;5.70;;;27.50;56.10;;;;;;5075887;28;20486;-84
2022/10/07 09:46:46;;;;;;;9.55;5.82;;;27.50;55.50;;;;;;5075851;28;20024;-85
2022/10/07 09:49:27;;;;;;;6.97;5.32;;;27.30;54.70;;;;;;5094278;28;20103;-93
2022/10/07 09:52:01;;;;;;;7.53;5.57;;;27.00;56.00;;;;;;5094272;28;20497;-83
2022/10/07 09:54:29;;;;;;;7.85;5.78;;;27.00;55.80;;;;;;5093885;28;20036;-85
2022/10/07 09:56:56;;;;;;;8.93;5.25;;;27.00;56.60;;;;;;5075994;28;20165;-84
2022/10/07 09:59:30;;;;;;;8.02;5.72;;;27.00;55.80;;;;;;5093734;28;20160;-85
2022/10/07 10:02:17;;;;;;;9.00;5.53;;;26.70;56.50;;;;;;5075739;28;20519;-87
2022/10/07 10:04:52;;;;;;;7.20;5.60;;;26.70;56.80;;;;;;5093889;28;20031;-89
2022/10/07 10:07:21;;;;;;;8.23;5.50;;;26.70;55.70;;;;;;5075833;28;20043;-96
2022/10/07 10:09:55;;;;;;;8.23;5.63;;;26.90;56.40;;;;;;5075411;28;20028;-83
2022/10/07 10:12:22;;;;;;;7.13;5.70;;;27.40;56.20;;;;;;5076207;28;20024;-86
2022/10/07 10:14:54;;;;;;;8.40;5.50;;;27.00;56.10;;;;;;5075497;28;20027;-86
2022/10/07 10:17:35;;;;;;;7.90;5.35;;;27.20;56.00;;;;;;5075645;28;20064;-87
2022/10/07 10:20:23;;;;;;;7.45;5.93;;;27.40;56.00;;;;;;5092380;28;20028;-83
2022/10/07 10:22:49;;;;;;;17.45;15.90;;;27.40;56.20;;;;;;5093384;28;20028;-93
2022/10/07 10:28:41;;;;;;;8.83;5.20;;;27.20;55.70;;;;;;5051548;28;20043;-85
2022/10/07 10:31:28;;;;;;;7.38;5.50;;;27.00;56.20;;;;;;5051177;28;20071;-89
2022/10/07 10:34:12;;;;;;;9.07;6.20;;;27.30;56.50;;;;;;5050753;28;20052;-83
2022/10/07 10:36:44;;;;;;;7.65;5.30;;;27.70;56.00;;;;;;5051085;28;20032;-87
2022/10/07 10:39:40;;;;;;;7.75;5.50;;;27.60;54.90;;;;;;5051153;28;20029;-92
2022/10/07 10:42:13;;;;;;;11.35;6.13;;;27.30;55.10;;;;;;5053439;28;20059;-90
2022/10/07 10:45:02;;;;;;;6.75;5.35;;;27.00;56.40;;;;;;5051935;28;20043;-83
2022/10/07 10:47:36;;;;;;;8.48;5.40;;;27.10;56.90;;;;;;5050959;28;20065;-92
2022/10/07 10:50:20;;;;;;;7.10;5.40;;;27.50;55.30;;;;;;5054629;28;20029;-94
2022/10/07 10:53:09;;;;;;;9.18;5.35;;;27.80;55.80;;;;;;4355354;28;10021599;-83
2022/10/07 10:55:56;;;;;;;8.40;5.28;;;28.40;55.20;;;;;;5035574;28;20072;-84
2022/10/07 10:58:29;;;;;;;8.95;5.18;;;28.50;53.80;;;;;;5034919;28;20045;-83
2022/10/07 11:01:01;;;;;;;7.70;5.10;;;28.60;53.90;;;;;;5033739;28;20036;-92
2022/10/07 11:03:49;;;;;;;6.82;5.10;;;28.50;54.60;;;;;;5034909;28;20086;-83
2022/10/07 11:06:17;;;;;;;8.30;4.90;;;28.30;54.60;;;;;;5071619;28;20499;-86
2022/10/07 11:08:46;;;;;;;7.43;5.20;;;28.20;55.00;;;;;;5075967;28;20085;-84
2022/10/07 11:11:16;;;;;;;6.45;4.45;;;28.00;54.50;;;;;;5075522;28;20074;-84
2022/10/07 11:14:03;;;;;;;9.63;4.75;;;27.90;55.50;;;;;;5076080;28;20449;-85
2022/10/07 11:16:49;;;;;;;7.50;4.75;;;27.50;55.10;;;;;;5058634;28;20097;-85
2022/10/07 11:19:21;;;;;;;7.70;4.93;;;27.60;55.30;;;;;;5075429;28;20638;-86
2022/10/07 11:21:52;;;;;;;7.07;4.65;;;27.50;55.10;;;;;;5058932;28;20486;-84
2022/10/07 11:24:33;;;;;;;7.80;4.72;;;27.70;55.60;;;;;;5058735;28;20032;-94
2022/10/07 11:27:28;;;;;;;6.43;4.78;;;27.70;54.70;;;;;;5075665;28;20021;-88
2022/10/07 11:30:00;;;;;;;8.77;4.55;;;27.40;55.30;;;;;;5075165;28;20039;-88
2022/10/07 11:32:42;;;;;;;8.02;4.70;;;27.20;55.70;;;;;;5058496;28;20047;-84
2022/10/07 11:35:34;;;;;;;6.35;4.50;;;27.60;55.80;;;;;;5058690;28;20127;-91
2022/10/07 11:38:04;;;;;;;6.60;4.50;;;27.90;54.60;;;;;;5076399;28;20100;-86
2022/10/07 11:40:33;;;;;;;6.63;4.23;;;27.80;54.70;;;;;;5074709;28;20017;-94
2022/10/07 11:43:12;;;;;;;8.07;4.75;;;28.00;54.70;;;;;;5075178;28;20625;-84
2022/10/07 11:45:48;;;;;;;6.38;4.40;;;28.20;54.70;;;;;;5074826;28;20024;-93
2022/10/07 11:48:20;;;;;;;8.18;4.72;;;28.30;54.00;;;;;;5075305;28;20031;-86
2022/10/07 11:51:01;;;;;;;10.75;4.55;;;28.00;54.30;;;;;;5075010;28;20027;-91
2022/10/07 11:53:33;;;;;;;6.88;4.75;;;28.00;54.00;;;;;;5057818;28;20064;-91
2022/10/07 11:56:16;;;;;;;5.95;4.45;;;27.80;55.20;;;;;;5075395;28;20055;-94
2022/10/07 11:58:43;;;;;;;8.70;4.30;;;27.60;54.30;;;;;;5074331;28;20119;-85
2022/10/07 12:01:24;;;;;;;6.75;4.43;;;27.50;55.00;;;;;;5057696;28;20095;-84
2022/10/07 12:03:52;;;;;;;7.78;4.32;;;27.70;54.30;;;;;;5059017;28;20031;-85
2022/10/07 12:06:18;;;;;;;7.60;4.43;;;27.70;54.70;;;;;;5075307;28;20479;-89
2022/10/07 12:08:44;;;;;;;7.68;4.50;;;27.80;54.20;;;;;;5074651;28;20029;-84
2022/10/07 12:11:10;;;;;;;8.48;5.40;;;28.00;54.10;;;;;;5076470;28;20021;-84
2022/10/07 12:13:39;;;;;;;10.02;4.80;;;28.10;53.90;;;;;;5057631;28;20028;-84
2022/10/07 12:16:22;;;;;;;7.20;4.80;;;28.00;53.70;;;;;;5075786;28;20091;-94
2022/10/07 12:19:06;;;;;;;9.55;5.03;;;27.90;54.80;;;;;;5075433;28;20129;-83
2022/10/07 12:22:10;;;;;;;6.65;5.03;;;27.70;54.30;;;;;;5058137;28;20021;-87
2022/10/07 12:24:37;;;;;;;7.43;4.70;;;27.20;54.20;;;;;;4994567;28;20375;-85
2022/10/07 12:27:25;;;;;;;7.45;5.03;;;27.00;55.10;;;;;;4978237;28;20485;-83
2022/10/07 12:30:01;;;;;;;6.25;4.60;;;27.00;54.70;;;;;;4977958;28;20068;-90
2022/10/07 12:32:51;;;;;;;6.43;4.75;;;26.60;55.80;;;;;;5006769;28;20501;-95
2022/10/07 12:35:33;;;;;;;9.45;4.60;;;26.70;55.80;;;;;;4992459;28;20045;-86
2022/10/07 12:38:40;;;;;;;6.97;4.57;;;26.80;55.30;;;;;;4976330;28;20030;-87
2022/10/07 12:41:30;;;;;;;8.57;4.80;;;26.90;54.80;;;;;;4934682;29;20059;-94
2022/10/07 12:44:05;;;;;;;7.55;4.97;;;27.00;54.70;;;;;;4924978;29;20434;-87
2022/10/07 12:46:48;;;;;;;8.30;5.07;;;27.50;55.10;;;;;;4936148;29;20048;-88
2022/10/07 12:49:19;;;;;;;6.40;4.53;;;27.50;54.20;;;;;;4935590;29;20036;-88
2022/10/07 12:51:45;;;;;;;7.28;4.43;;;27.20;54.90;;;;;;4936175;29;20038;-84
2022/10/07 12:54:19;;;;;;;7.40;4.82;;;27.40;55.60;;;;;;4936053;29;20051;-91
2022/10/07 12:56:45;;;;;;;10.40;5.03;;;27.50;54.60;;;;;;4936161;29;20028;-89
2022/10/07 13:02:10;;;;;;;8.30;4.90;;;27.60;55.00;;;;;;4994490;28;20094;-91
2022/10/07 13:04:44;;;;;;;9.20;5.60;;;27.90;54.80;;;;;;4994043;28;20034;-83
2022/10/07 13:07:19;;;;;;;7.88;4.47;;;27.80;54.50;;;;;;4993594;28;20031;-85
2022/10/07 13:10:06;;;;;;;8.18;5.32;;;28.00;53.70;;;;;;4993385;28;20034;-90